Time;durP1;ratioP1;P1;durP2;ratioP2;P2;SDS_P1;SDS_P2;PMS_P1;PMS_P2;Temp;Humidity;BMP_temperature;BMP_pressure;BME280_temperature;BME280_humidity;BME280_pressure;Samples;Min_cycle;Max_cycle;Signal;HPM_P1;HPM_P2
2021/03/26 00:02:00;;;;;;;9.77;5.37;;;7.30;59.50;;;;;;5077534;28;20212;-89
2021/03/26 00:04:31;;;;;;;8.27;4.90;;;7.30;59.90;;;;;;5076671;28;20228;-89
2021/03/26 00:07:00;;;;;;;13.43;5.63;;;7.30;60.10;;;;;;5076003;28;20208;-89
2021/03/26 00:09:38;;;;;;;7.17;4.97;;;7.10;59.60;;;;;;5067369;28;20683;-89
2021/03/26 00:12:12;;;;;;;10.73;4.90;;;7.10;62.10;;;;;;5079238;28;20247;-89
2021/03/26 00:14:39;;;;;;;8.90;5.33;;;7.10;61.70;;;;;;5066589;28;20734;-89
2021/03/26 00:17:06;;;;;;;10.87;5.03;;;7.10;64.10;;;;;;5071851;28;20201;-89
2021/03/26 00:19:35;;;;;;;8.13;5.17;;;7.10;62.70;;;;;;5076370;28;20236;-89
2021/03/26 00:22:01;;;;;;;10.73;4.87;;;7.10;61.10;;;;;;5077469;28;20228;-89
2021/03/26 00:24:28;;;;;;;7.77;5.03;;;7.10;61.80;;;;;;5075974;28;20722;-89
2021/03/26 00:27:01;;;;;;;7.47;4.33;;;7.10;62.30;;;;;;5076346;28;20237;-89
2021/03/26 00:29:28;;;;;;;8.20;4.47;;;7.00;61.20;;;;;;5066094;28;20644;-89
2021/03/26 00:31:55;;;;;;;8.57;4.60;;;7.00;61.80;;;;;;5073884;28;20197;-89
2021/03/26 00:34:22;;;;;;;8.43;4.70;;;7.00;63.30;;;;;;5075793;28;20233;-89
2021/03/26 00:36:49;;;;;;;5.97;4.50;;;6.90;62.30;;;;;;5076045;28;20227;-89
2021/03/26 00:39:16;;;;;;;10.10;4.80;;;6.80;61.50;;;;;;5070915;28;20226;-89
2021/03/26 00:45:09;;;;;;;7.53;4.80;;;6.70;63.30;;;;;;5057130;28;20212;-89
2021/03/26 00:47:35;;;;;;;8.70;5.13;;;6.70;60.70;;;;;;5075629;28;20506;-89
2021/03/26 00:50:03;;;;;;;6.03;4.40;;;6.80;61.60;;;;;;5074187;28;20335;-89
2021/03/26 00:52:30;;;;;;;8.27;4.43;;;6.70;61.00;;;;;;5074971;28;20262;-89
2021/03/26 00:54:56;;;;;;;7.50;4.80;;;6.70;62.30;;;;;;5073352;28;20221;-88
2021/03/26 00:57:22;;;;;;;6.20;4.13;;;6.70;62.90;;;;;;5075052;28;20196;-89
2021/03/26 00:59:49;;;;;;;6.80;4.00;;;6.70;63.00;;;;;;5074333;28;20313;-89
2021/03/26 01:02:16;;;;;;;8.57;4.83;;;6.70;62.00;;;;;;5062433;28;20197;-89
2021/03/26 01:04:43;;;;;;;7.60;4.83;;;6.60;62.70;;;;;;5063997;28;20561;-89
2021/03/26 01:07:09;;;;;;;8.93;4.20;;;6.50;64.20;;;;;;5055736;28;20698;-89
2021/03/26 01:09:35;;;;;;;7.33;4.40;;;6.50;64.30;;;;;;5066157;28;20229;-88
2021/03/26 01:12:02;;;;;;;7.17;4.30;;;6.40;63.60;;;;;;5074181;28;20302;-89
2021/03/26 01:14:28;;;;;;;7.37;4.70;;;6.50;64.50;;;;;;5053703;28;20319;-89
2021/03/26 01:16:55;;;;;;;6.47;4.47;;;6.40;63.90;;;;;;5054848;28;20206;-89
2021/03/26 01:19:23;;;;;;;7.47;4.57;;;6.40;65.30;;;;;;5053389;28;20254;-88
2021/03/26 01:21:50;;;;;;;7.93;4.20;;;6.40;63.90;;;;;;5054100;28;20237;-88
2021/03/26 01:24:17;;;;;;;8.73;4.77;;;6.40;64.80;;;;;;5054374;28;20230;-88
2021/03/26 01:26:44;;;;;;;8.57;4.90;;;6.30;64.50;;;;;;5056856;28;20224;-88
2021/03/26 01:29:11;;;;;;;8.30;4.97;;;6.30;65.50;;;;;;5059851;28;20618;-88
2021/03/26 01:31:41;;;;;;;5.57;4.37;;;6.30;66.30;;;;;;5059920;28;20692;-88
2021/03/26 01:34:08;;;;;;;6.47;4.73;;;6.30;66.40;;;;;;5060003;28;20693;-88
2021/03/26 01:36:36;;;;;;;5.57;4.07;;;6.40;65.50;;;;;;5071195;28;20193;-88
2021/03/26 01:39:05;;;;;;;8.30;4.43;;;6.40;65.40;;;;;;5078145;28;20217;-88
2021/03/26 01:41:38;;;;;;;6.67;4.87;;;6.40;65.70;;;;;;5078626;28;20201;-88
2021/03/26 01:44:05;;;;;;;6.40;4.50;;;6.30;65.00;;;;;;5077920;28;20190;-88
2021/03/26 01:46:32;;;;;;;7.33;4.17;;;6.30;64.70;;;;;;5067449;28;20202;-88
2021/03/26 01:49:01;;;;;;;9.90;5.00;;;6.20;66.70;;;;;;5058590;28;20285;-88
2021/03/26 01:51:29;;;;;;;8.40;4.80;;;6.10;68.30;;;;;;5055903;28;20299;-88
2021/03/26 01:53:58;;;;;;;8.17;4.93;;;6.10;68.30;;;;;;5058131;28;20202;-88
2021/03/26 01:56:26;;;;;;;6.43;4.70;;;6.10;69.90;;;;;;5057867;28;20296;-88
2021/03/26 01:58:52;;;;;;;7.33;4.57;;;6.10;67.80;;;;;;5057863;28;20305;-88
2021/03/26 02:01:24;;;;;;;6.23;4.47;;;6.10;68.10;;;;;;5055562;28;20225;-88
2021/03/26 02:03:52;;;;;;;6.67;4.50;;;6.10;67.50;;;;;;5056973;28;20218;-88
2021/03/26 02:06:22;;;;;;;8.23;4.80;;;6.10;66.90;;;;;;5055491;28;20240;-88
2021/03/26 02:08:50;;;;;;;7.90;4.20;;;6.20;67.00;;;;;;5058043;28;20208;-88
2021/03/26 02:11:24;;;;;;;8.37;4.70;;;6.20;66.70;;;;;;5057682;28;20236;-88
2021/03/26 02:13:51;;;;;;;7.83;4.37;;;6.30;66.60;;;;;;5057841;28;20247;-88
2021/03/26 02:16:19;;;;;;;7.03;4.43;;;6.30;67.50;;;;;;5057800;28;20230;-88
2021/03/26 02:18:46;;;;;;;8.77;4.53;;;6.20;67.40;;;;;;5059248;28;20628;-88
2021/03/26 02:21:17;;;;;;;8.50;4.43;;;6.20;69.00;;;;;;5056917;28;20327;-88
2021/03/26 02:23:46;;;;;;;8.30;4.30;;;6.20;68.00;;;;;;5057582;28;20198;-88
2021/03/26 02:26:18;;;;;;;7.77;4.23;;;6.10;68.70;;;;;;5056470;28;20225;-87
2021/03/26 02:28:45;;;;;;;7.43;4.37;;;6.10;68.20;;;;;;5057872;28;20265;-88
2021/03/26 02:31:11;;;;;;;7.37;4.63;;;6.00;69.70;;;;;;5056589;28;20724;-88
2021/03/26 02:33:38;;;;;;;7.90;4.23;;;6.00;70.70;;;;;;5056420;28;20201;-87
2021/03/26 02:36:39;;;;;;;6.47;4.23;;;5.90;70.70;;;;;;5058775;28;20217;-87
2021/03/26 02:39:19;;;;;;;7.73;4.40;;;5.90;70.70;;;;;;5076603;28;20541;-88
2021/03/26 02:41:51;;;;;;;7.87;4.10;;;5.90;70.70;;;;;;5076406;28;20190;-87
2021/03/26 02:44:27;;;;;;;7.20;4.63;;;5.80;70.60;;;;;;5076471;28;20270;-88
2021/03/26 02:47:01;;;;;;;6.30;3.90;;;5.80;70.60;;;;;;5074939;28;20233;-87
2021/03/26 02:49:33;;;;;;;7.67;4.50;;;5.70;70.50;;;;;;5076390;28;20391;-87
2021/03/26 02:52:06;;;;;;;6.90;4.50;;;5.60;70.40;;;;;;5074088;28;20239;-87
2021/03/26 02:54:39;;;;;;;6.57;4.17;;;5.60;70.80;;;;;;5075639;28;20278;-87
2021/03/26 02:57:09;;;;;;;6.97;4.07;;;5.50;72.30;;;;;;5078010;28;20280;-87
2021/03/26 02:59:40;;;;;;;8.20;4.50;;;5.50;72.90;;;;;;5076063;28;20667;-87
2021/03/26 03:02:10;;;;;;;7.30;4.30;;;5.50;72.50;;;;;;5078689;28;20181;-87
2021/03/26 03:04:42;;;;;;;6.90;4.50;;;5.30;71.80;;;;;;5076947;28;20233;-87
2021/03/26 03:07:13;;;;;;;6.53;3.87;;;5.20;74.50;;;;;;5078319;28;20243;-86
2021/03/26 03:09:42;;;;;;;5.93;3.73;;;5.10;73.50;;;;;;5074777;28;20293;-86
2021/03/26 03:12:14;;;;;;;7.43;4.37;;;5.20;73.50;;;;;;5077523;28;20562;-87
2021/03/26 03:14:44;;;;;;;5.67;4.10;;;5.20;73.20;;;;;;5076957;28;20233;-86
2021/03/26 03:17:14;;;;;;;6.57;4.10;;;5.30;72.00;;;;;;5077030;28;20206;-87
2021/03/26 03:23:07;;;;;;;6.53;4.20;;;5.20;71.90;;;;;;5075988;28;20165;-86
2021/03/26 03:25:35;;;;;;;7.30;4.10;;;5.20;72.60;;;;;;5057448;28;20233;-86
2021/03/26 03:28:16;;;;;;;5.97;3.83;;;5.20;73.50;;;;;;5075902;28;20208;-86
2021/03/26 03:30:50;;;;;;;8.00;3.90;;;5.20;73.30;;;;;;5075338;28;20282;-87
2021/03/26 03:33:20;;;;;;;7.57;3.87;;;5.20;74.10;;;;;;5075935;28;20189;-87
2021/03/26 03:35:53;;;;;;;8.80;3.83;;;5.20;73.00;;;;;;5074793;28;20734;-86
2021/03/26 03:38:30;;;;;;;7.60;3.93;;;5.20;73.50;;;;;;5075317;28;20236;-86
2021/03/26 03:41:01;;;;;;;9.63;4.40;;;5.10;73.10;;;;;;5074792;28;20236;-86
2021/03/26 03:43:33;;;;;;;6.67;4.17;;;5.10;74.30;;;;;;5075856;28;20185;-86
2021/03/26 03:46:04;;;;;;;7.23;3.97;;;5.10;74.30;;;;;;5054994;28;20241;-86
2021/03/26 03:48:37;;;;;;;5.97;3.77;;;5.20;74.00;;;;;;5054079;28;20284;-86
2021/03/26 03:51:10;;;;;;;8.37;4.13;;;5.10;73.60;;;;;;5052673;28;20222;-86
2021/03/26 03:53:41;;;;;;;7.20;4.13;;;5.00;74.10;;;;;;5055773;28;20243;-86
2021/03/26 03:56:24;;;;;;;5.93;3.87;;;5.00;74.50;;;;;;5054687;28;20275;-86
2021/03/26 03:58:57;;;;;;;13.43;4.70;;;5.00;75.80;;;;;;5054983;28;20221;-86
2021/03/26 04:01:30;;;;;;;10.83;4.13;;;5.00;74.30;;;;;;5070592;28;20619;-86
2021/03/26 04:04:03;;;;;;;7.13;3.83;;;4.90;74.90;;;;;;5074830;28;20196;-87
2021/03/26 04:06:38;;;;;;;5.90;3.90;;;4.90;74.90;;;;;;5075698;28;20185;-87
2021/03/26 04:09:08;;;;;;;9.00;4.67;;;4.90;74.80;;;;;;5074980;28;20280;-86
2021/03/26 04:11:42;;;;;;;8.23;3.70;;;4.90;75.00;;;;;;5075174;28;20209;-86
2021/03/26 04:14:15;;;;;;;13.00;4.50;;;4.80;75.30;;;;;;5074436;28;20194;-87
2021/03/26 04:16:51;;;;;;;8.93;4.10;;;4.80;75.90;;;;;;5075218;28;20250;-86
2021/03/26 04:19:22;;;;;;;6.03;3.77;;;4.80;76.30;;;;;;5073819;28;20232;-87
2021/03/26 04:21:54;;;;;;;7.27;4.17;;;4.80;76.20;;;;;;5074285;28;20682;-86
2021/03/26 04:24:24;;;;;;;7.73;3.67;;;4.80;75.50;;;;;;5074259;28;20239;-86
2021/03/26 04:26:56;;;;;;;5.33;3.30;;;4.70;75.20;;;;;;5073061;28;20264;-86
2021/03/26 04:29:28;;;;;;;6.40;3.50;;;4.80;75.30;;;;;;5074421;28;20671;-86
2021/03/26 04:32:00;;;;;;;6.20;3.67;;;4.70;75.40;;;;;;5076395;28;20283;-86
2021/03/26 04:34:30;;;;;;;7.23;3.60;;;4.70;76.20;;;;;;5075708;28;20229;-87
2021/03/26 04:37:04;;;;;;;5.13;3.30;;;4.70;75.50;;;;;;5076175;28;20200;-87
2021/03/26 04:39:36;;;;;;;9.17;3.20;;;4.60;75.30;;;;;;5075628;28;20570;-87
2021/03/26 04:42:10;;;;;;;6.73;3.40;;;4.40;76.30;;;;;;5075175;28;20185;-87
2021/03/26 04:44:49;;;;;;;6.70;3.50;;;4.40;77.10;;;;;;5075628;28;20281;-87
2021/03/26 04:47:21;;;;;;;6.47;3.77;;;4.40;78.30;;;;;;5075881;28;20193;-87
2021/03/26 04:49:55;;;;;;;5.80;3.37;;;4.50;77.70;;;;;;5074754;28;20255;-87
2021/03/26 04:52:25;;;;;;;4.73;3.37;;;4.60;76.60;;;;;;5075320;28;20189;-87
2021/03/26 04:55:01;;;;;;;6.10;4.00;;;4.70;76.70;;;;;;5075252;28;20231;-88
2021/03/26 04:57:33;;;;;;;6.33;3.60;;;4.60;77.20;;;;;;5077696;28;20220;-87
2021/03/26 05:00:03;;;;;;;6.73;3.40;;;4.60;77.20;;;;;;5077278;28;20250;-87
2021/03/26 05:02:32;;;;;;;5.47;3.07;;;4.60;76.80;;;;;;5079909;28;20185;-87
2021/03/26 05:05:00;;;;;;;9.13;3.60;;;4.50;76.60;;;;;;5079170;28;20319;-87
2021/03/26 05:07:32;;;;;;;5.40;3.60;;;4.50;76.90;;;;;;5080049;28;20197;-87
2021/03/26 05:10:02;;;;;;;6.93;3.90;;;4.40;76.80;;;;;;5079670;28;20225;-87
2021/03/26 05:12:33;;;;;;;5.40;3.30;;;4.50;77.10;;;;;;5079920;28;20201;-87
2021/03/26 05:15:05;;;;;;;8.93;4.03;;;4.60;76.70;;;;;;5078838;28;20232;-87
2021/03/26 05:17:40;;;;;;;11.40;5.10;;;4.70;76.60;;;;;;5077555;28;20185;-87
2021/03/26 05:20:18;;;;;;;8.90;3.70;;;4.70;77.20;;;;;;5057711;28;20236;-87
2021/03/26 05:22:52;;;;;;;9.07;3.60;;;4.70;77.30;;;;;;5058428;28;20620;-86
2021/03/26 05:28:43;;;;;;;7.83;3.47;;;4.70;77.10;;;;;;5057792;28;20162;-87
2021/03/26 05:31:31;;;;;;;7.37;3.60;;;4.70;76.70;;;;;;5055721;28;20229;-87
2021/03/26 05:34:04;;;;;;;6.33;3.10;;;4.80;77.70;;;;;;5075652;28;20725;-87
2021/03/26 05:36:35;;;;;;;11.00;3.50;;;4.70;76.70;;;;;;5062669;28;20197;-87
2021/03/26 05:39:08;;;;;;;9.00;4.00;;;4.70;76.90;;;;;;5057898;28;20565;-87
2021/03/26 05:42:02;;;;;;;14.00;3.53;;;4.80;77.50;;;;;;5058171;28;20221;-86
2021/03/26 05:44:54;;;;;;;7.67;3.80;;;5.00;77.60;;;;;;5034928;28;20233;-87
2021/03/26 05:47:47;;;;;;;5.83;3.40;;;5.00;76.30;;;;;;5058452;28;20198;-86
2021/03/26 05:50:32;;;;;;;8.37;3.43;;;5.10;75.90;;;;;;5057529;28;20241;-87
2021/03/26 05:53:17;;;;;;;10.93;3.47;;;5.10;76.40;;;;;;5058829;28;20652;-87
2021/03/26 05:55:51;;;;;;;15.53;3.70;;;5.20;76.40;;;;;;5059331;28;20233;-87
2021/03/26 05:58:58;;;;;;;14.87;4.07;;;5.30;76.50;;;;;;5059606;28;20190;-87
2021/03/26 06:01:36;;;;;;;10.40;3.80;;;5.30;76.20;;;;;;5052777;28;20229;-87
2021/03/26 06:04:32;;;;;;;9.40;3.87;;;5.40;75.70;;;;;;5060154;28;20193;-87
2021/03/26 06:07:26;;;;;;;5.47;3.53;;;5.50;75.50;;;;;;5059499;28;20182;-87
2021/03/26 06:10:33;;;;;;;7.70;3.70;;;5.60;71.20;;;;;;5058599;28;20295;-86
2021/03/26 06:13:36;;;;;;;6.97;3.23;;;5.60;70.40;;;;;;5058143;28;20629;-89
2021/03/26 06:20:02;;;;;;;7.90;3.40;;;5.80;70.60;;;;;;5057833;28;20229;-88
2021/03/26 06:23:05;;;;;;;6.33;3.50;;;5.90;70.70;;;;;;5026639;28;20212;-88
2021/03/26 06:25:54;;;;;;;9.13;3.37;;;6.10;70.90;;;;;;5058019;28;20229;-89
2021/03/26 06:28:40;;;;;;;5.77;3.17;;;6.30;67.80;;;;;;5057111;28;20202;-91
2021/03/26 06:31:35;;;;;;;10.40;3.00;;;6.50;69.40;;;;;;5059503;28;20586;-89
2021/03/26 06:34:25;;;;;;;8.33;3.70;;;6.60;68.30;;;;;;5060389;28;20186;-92
2021/03/26 06:37:17;;;;;;;13.70;3.30;;;7.30;63.20;;;;;;5058695;28;20198;-91
2021/03/26 06:40:22;;;;;;;6.30;3.17;;;8.50;57.80;;;;;;5035060;28;20230;-92
2021/03/26 06:49:23;;;;;;;5.00;2.92;;;11.50;41.80;;;;;;5060906;28;20165;-93
2021/03/26 07:10:01;;;;;;;4.93;3.50;;;12.80;36.80;;;;;;5062290;28;20239;-90
2021/03/26 07:16:24;;;;;;;4.85;2.90;;;12.70;36.90;;;;;;5081512;28;20273;-90
2021/03/26 07:19:17;;;;;;;8.32;3.15;;;12.40;38.20;;;;;;4980490;28;20244;-91
2021/03/26 07:22:12;;;;;;;4.80;2.97;;;12.20;39.10;;;;;;4976954;28;20232;-92
2021/03/26 07:25:17;;;;;;;5.82;3.42;;;12.30;39.90;;;;;;5066897;28;20320;-92
2021/03/26 07:28:01;;;;;;;5.43;3.53;;;12.60;38.80;;;;;;5037499;28;20208;-92
2021/03/26 07:33:56;;;;;;;9.50;3.70;;;12.00;41.40;;;;;;5086519;28;20157;-89
2021/03/26 07:39:56;;;;;;;7.13;4.53;;;11.80;41.70;;;;;;5072525;28;20231;-87
2021/03/26 07:42:58;;;;;;;10.07;3.97;;;11.70;41.80;;;;;;5075843;28;20205;-87
2021/03/26 07:52:58;;;;;;;7.75;4.47;;;11.90;43.30;;;;;;5082435;28;20212;-89
2021/03/26 07:59:21;;;;;;;9.45;5.78;;;12.10;41.90;;;;;;5078566;28;20165;-92
2021/03/26 08:09:03;;;;;;;11.07;5.65;;;13.80;37.30;;;;;;5044491;28;20201;-91
2021/03/26 08:11:48;;;;;;;13.25;6.97;;;14.20;38.10;;;;;;5053239;28;20220;-90
2021/03/26 08:14:41;;;;;;;14.15;8.02;;;14.30;37.60;;;;;;5073725;28;20201;-92
2021/03/26 08:17:19;;;;;;;12.23;7.57;;;14.40;37.30;;;;;;5076116;28;20567;-92
2021/03/26 08:23:30;;;;;;;13.93;7.75;;;14.30;36.50;;;;;;5078115;28;20184;-89
2021/03/26 08:26:04;;;;;;;15.68;7.45;;;14.60;36.90;;;;;;5074352;28;20315;-89
2021/03/26 08:28:57;;;;;;;11.10;7.55;;;14.90;36.20;;;;;;5077222;28;20195;-90
2021/03/26 08:31:40;;;;;;;14.63;8.48;;;15.00;35.30;;;;;;5080476;28;20244;-89
2021/03/26 08:37:46;;;;;;;14.73;8.25;;;15.70;34.80;;;;;;5082438;28;20166;-88
2021/03/26 08:43:37;;;;;;;12.88;8.45;;;16.20;33.50;;;;;;5084183;28;20160;-89
2021/03/26 08:46:08;;;;;;;14.30;8.18;;;16.50;32.50;;;;;;5080823;28;20316;-90
2021/03/26 08:49:02;;;;;;;15.82;9.15;;;16.70;31.90;;;;;;5081177;28;20284;-90
2021/03/26 08:52:05;;;;;;;14.10;9.40;;;16.40;32.30;;;;;;5058321;28;20221;-91
2021/03/26 08:54:45;;;;;;;16.88;9.68;;;16.70;32.30;;;;;;5067697;28;20228;-90
2021/03/26 08:57:20;;;;;;;14.57;10.68;;;16.80;31.90;;;;;;5081358;28;20197;-89
2021/03/26 09:00:00;;;;;;;15.18;10.23;;;17.10;31.30;;;;;;5076568;28;20221;-90
2021/03/26 09:02:43;;;;;;;12.77;9.70;;;17.30;29.80;;;;;;5073409;28;20563;-90
2021/03/26 09:05:43;;;;;;;22.67;10.02;;;17.60;30.00;;;;;;5079812;28;20221;-89
2021/03/26 09:08:48;;;;;;;14.10;9.18;;;18.70;31.00;;;;;;5063826;28;20632;-89
2021/03/26 09:11:46;;;;;;;16.10;10.32;;;19.20;28.40;;;;;;5036116;28;20222;-88
2021/03/26 09:14:43;;;;;;;15.38;10.25;;;18.60;29.20;;;;;;5057772;28;20205;-89
2021/03/26 09:17:16;;;;;;;16.02;9.68;;;19.50;27.60;;;;;;5055720;28;20204;-88
2021/03/26 09:19:48;;;;;;;15.52;10.07;;;19.80;26.50;;;;;;5049090;28;20229;-87
2021/03/26 09:22:34;;;;;;;16.95;9.95;;;19.90;26.30;;;;;;5068490;28;20264;-87
2021/03/26 09:31:57;;;;;;;14.93;9.88;;;23.50;21.60;;;;;;5077955;28;20247;-84
2021/03/26 09:34:28;;;;;;;13.35;9.90;;;24.90;19.30;;;;;;5054755;28;20293;-86
2021/03/26 09:37:20;;;;;;;14.05;9.73;;;24.00;19.60;;;;;;5079007;28;20196;-85
2021/03/26 09:39:51;;;;;;;13.05;9.10;;;25.30;17.70;;;;;;5063762;28;20229;-85
2021/03/26 09:42:35;;;;;;;13.40;9.45;;;25.00;18.90;;;;;;5066425;28;20221;-86
2021/03/26 09:45:29;;;;;;;10.75;8.82;;;24.70;18.50;;;;;;5057412;28;20592;-85
2021/03/26 09:48:22;;;;;;;11.07;9.02;;;25.10;18.30;;;;;;5070112;28;20722;-86
2021/03/26 09:50:58;;;;;;;12.95;9.02;;;26.10;17.50;;;;;;5077315;28;20243;-85
2021/03/26 09:53:25;;;;;;;10.43;8.63;;;26.60;15.00;;;;;;5075992;28;20189;-85
2021/03/26 09:56:04;;;;;;;12.50;8.25;;;25.00;17.50;;;;;;5073969;28;20235;-85
2021/03/26 09:58:36;;;;;;;10.15;9.13;;;24.70;17.60;;;;;;5076369;28;20188;-85
2021/03/26 10:01:09;;;;;;;10.65;9.00;;;25.70;16.80;;;;;;5074003;28;20235;-85
2021/03/26 10:03:48;;;;;;;11.50;9.50;;;25.50;16.70;;;;;;5079359;28;20617;-85
2021/03/26 10:06:35;;;;;;;12.05;9.20;;;25.60;17.00;;;;;;5056202;28;20303;-85
2021/03/26 10:09:27;;;;;;;11.77;9.57;;;25.20;17.20;;;;;;5061582;28;20223;-86
2021/03/26 10:12:15;;;;;;;13.05;9.63;;;25.30;18.00;;;;;;5057698;28;20613;-84
2021/03/26 10:14:48;;;;;;;12.73;9.00;;;25.80;17.10;;;;;;5058104;28;20229;-84
2021/03/26 10:17:40;;;;;;;12.13;9.52;;;25.60;16.70;;;;;;5072953;28;20201;-85
2021/03/26 10:20:32;;;;;;;15.02;8.98;;;26.10;16.70;;;;;;5078620;28;20306;-86
2021/03/26 10:23:07;;;;;;;10.85;9.18;;;27.50;15.40;;;;;;5069714;28;20211;-85
2021/03/26 10:25:38;;;;;;;12.00;9.75;;;27.90;15.60;;;;;;5060087;28;20231;-85
2021/03/26 10:28:15;;;;;;;12.75;9.57;;;27.70;15.50;;;;;;5060902;28;20197;-85
2021/03/26 10:30:44;;;;;;;11.88;9.70;;;27.80;15.50;;;;;;5073748;28;20255;-85
2021/03/26 10:33:13;;;;;;;11.27;9.45;;;27.30;15.30;;;;;;5080420;28;20197;-85
2021/03/26 10:39:11;;;;;;;13.65;10.23;;;24.30;17.80;;;;;;5078400;28;20208;-85
2021/03/26 10:41:53;;;;;;;16.27;9.32;;;23.70;19.30;;;;;;5078772;28;20224;-84
2021/03/26 10:44:30;;;;;;;11.73;9.50;;;23.30;20.00;;;;;;5078048;28;20227;-85
2021/03/26 10:53:45;;;;;;;14.88;9.45;;;24.10;18.90;;;;;;5076985;28;20188;-85
2021/03/26 10:56:29;;;;;;;10.10;8.25;;;23.80;19.00;;;;;;5062577;28;20767;-85
2021/03/26 10:59:07;;;;;;;10.45;8.32;;;23.70;19.60;;;;;;5055208;28;20201;-84
2021/03/26 11:01:40;;;;;;;11.27;7.72;;;22.60;18.30;;;;;;5061908;28;20228;-86
2021/03/26 11:04:21;;;;;;;11.20;8.45;;;21.80;19.40;;;;;;5076908;28;20211;-87
2021/03/26 11:06:52;;;;;;;13.50;8.00;;;22.80;19.10;;;;;;5073326;28;20201;-84
2021/03/26 11:09:22;;;;;;;13.43;9.02;;;23.50;19.20;;;;;;5056266;28;20567;-84
2021/03/26 11:11:58;;;;;;;13.35;8.98;;;24.00;17.80;;;;;;5056652;28;20196;-89
2021/03/26 11:15:13;;;;;;;13.40;8.50;;;24.00;18.40;;;;;;5057136;28;20224;-82
2021/03/26 11:18:04;;;;;;;14.73;8.95;;;22.90;19.80;;;;;;5064179;28;20201;-85
2021/03/26 11:23:27;;;;;;;13.57;8.15;;;21.00;22.90;;;;;;5063294;28;20225;-85
2021/03/26 11:26:06;;;;;;;12.93;8.02;;;20.40;23.30;;;;;;5061092;28;20226;-84
2021/03/26 11:28:40;;;;;;;11.10;7.93;;;19.80;24.10;;;;;;5079592;28;20219;-92
2021/03/26 11:31:20;;;;;;;13.18;7.70;;;19.20;25.60;;;;;;5083227;28;20244;-88
2021/03/26 11:34:00;;;;;;;13.98;7.70;;;18.70;25.30;;;;;;5079813;28;20238;-86
2021/03/26 11:36:37;;;;;;;13.52;7.32;;;18.40;26.30;;;;;;5065692;28;20212;-85
2021/03/26 11:39:07;;;;;;;9.60;6.85;;;18.30;27.40;;;;;;5075367;28;20260;-85
2021/03/26 11:41:40;;;;;;;9.68;6.40;;;18.30;26.10;;;;;;5075765;28;20545;-85
2021/03/26 11:44:10;;;;;;;10.88;6.93;;;18.30;26.10;;;;;;5074727;28;20609;-86
2021/03/26 11:46:41;;;;;;;19.00;13.77;;;18.20;26.50;;;;;;5076958;28;20540;-86
2021/03/26 11:49:17;;;;;;;9.95;6.57;;;18.10;25.50;;;;;;5076640;28;20189;-86
2021/03/26 11:51:49;;;;;;;11.50;6.45;;;18.00;25.10;;;;;;5076139;28;20189;-86
2021/03/26 11:54:29;;;;;;;12.20;7.03;;;17.80;25.20;;;;;;5076598;28;20190;-88
2021/03/26 12:00:21;;;;;;;11.75;6.55;;;18.10;25.90;;;;;;5077840;28;20232;-89
2021/03/26 12:06:24;;;;;;;9.38;6.05;;;18.20;25.50;;;;;;5076675;28;20557;-87
2021/03/26 12:08:58;;;;;;;9.25;6.70;;;17.90;25.20;;;;;;5076206;28;20246;-88
2021/03/26 12:11:31;;;;;;;8.85;5.93;;;17.80;24.90;;;;;;5076586;28;20243;-86
2021/03/26 12:14:05;;;;;;;9.18;5.65;;;17.80;26.30;;;;;;5077794;28;20650;-86
2021/03/26 12:16:35;;;;;;;8.43;5.60;;;17.90;25.90;;;;;;5078356;28;20220;-88
2021/03/26 12:19:06;;;;;;;9.77;6.22;;;17.90;26.00;;;;;;5080974;28;20666;-88
2021/03/26 12:21:50;;;;;;;13.02;5.55;;;18.00;26.40;;;;;;5080235;28;20228;-89
2021/03/26 12:27:34;;;;;;;44.75;12.15;;;18.20;25.10;;;;;;5075468;28;20271;-86
2021/03/26 12:30:09;;;;;;;8.63;5.65;;;17.70;25.40;;;;;;5076481;28;20223;-87
2021/03/26 12:32:40;;;;;;;7.75;5.03;;;17.60;24.90;;;;;;5077286;28;20195;-87
2021/03/26 12:38:40;;;;;;;9.90;6.55;;;17.50;26.00;;;;;;5078066;28;20204;-87
2021/03/26 12:41:12;;;;;;;10.93;6.07;;;17.40;25.60;;;;;;5082180;28;20248;-86
2021/03/26 12:44:06;;;;;;;10.07;6.00;;;17.30;26.10;;;;;;5076677;28;20200;-88
2021/03/26 12:50:04;;;;;;;10.18;6.72;;;17.90;25.10;;;;;;5071333;28;20371;-90
2021/03/26 12:56:02;;;;;;;7.30;5.10;;;17.60;26.30;;;;;;5070148;28;20223;-86
2021/03/26 12:58:52;;;;;;;9.32;5.57;;;17.70;25.10;;;;;;5058171;28;20198;-87
2021/03/26 13:01:23;;;;;;;9.82;5.05;;;18.10;24.70;;;;;;5074662;28;20225;-87
2021/03/26 13:04:13;;;;;;;9.77;4.88;;;18.30;23.80;;;;;;5077881;28;20666;-87
2021/03/26 13:06:45;;;;;;;9.25;5.60;;;18.40;24.10;;;;;;5072336;28;20232;-87
2021/03/26 13:09:21;;;;;;;9.05;5.65;;;18.00;25.60;;;;;;5068180;28;20209;-87
2021/03/26 13:15:19;;;;;;;18.30;14.10;;;17.70;24.30;;;;;;4966831;28;20239;-90
2021/03/26 13:31:09;;;;;;;10.35;5.63;;;18.30;23.20;;;;;;4977102;28;20196;-89
2021/03/26 13:44:05;;;;;;;10.10;5.72;;;18.20;23.20;;;;;;4980496;28;20311;-86
2021/03/26 13:46:34;;;;;;;7.68;5.15;;;18.10;23.10;;;;;;4990941;28;20240;-85
2021/03/26 13:49:13;;;;;;;7.10;4.03;;;18.10;22.30;;;;;;5060208;28;20194;-87
2021/03/26 13:51:42;;;;;;;11.48;4.38;;;18.20;22.20;;;;;;5078495;28;20209;-86
2021/03/26 13:57:37;;;;;;;7.25;4.60;;;18.10;21.10;;;;;;5071649;28;20550;-85
2021/03/26 14:00:18;;;;;;;9.38;4.45;;;18.10;22.20;;;;;;5071586;28;20256;-86
2021/03/26 14:06:32;;;;;;;8.50;3.13;;;18.00;20.40;;;;;;5061188;28;20565;-86
2021/03/26 14:12:24;;;;;;;24.88;12.88;;;18.10;20.30;;;;;;5062196;28;20236;-88
2021/03/26 14:14:53;;;;;;;7.65;2.85;;;18.20;19.90;;;;;;5060089;28;20260;-86
2021/03/26 14:17:29;;;;;;;6.18;3.00;;;18.10;19.10;;;;;;5059843;28;20691;-86
2021/03/26 14:20:01;;;;;;;6.97;3.65;;;18.10;20.30;;;;;;5058143;28;20225;-85
2021/03/26 14:22:35;;;;;;;4.15;2.72;;;17.90;19.30;;;;;;5044131;28;20646;-86
2021/03/26 14:25:09;;;;;;;5.50;2.55;;;17.90;20.10;;;;;;5063136;28;20249;-86
2021/03/26 14:27:59;;;;;;;5.03;2.60;;;17.90;19.80;;;;;;5059346;28;20221;-89
2021/03/26 14:30:40;;;;;;;4.15;2.50;;;17.80;18.90;;;;;;5064870;28;20294;-88
2021/03/26 14:33:34;;;;;;;7.82;2.58;;;17.90;18.90;;;;;;5063987;28;20206;-88
2021/03/26 14:36:10;;;;;;;5.72;2.47;;;17.90;21.10;;;;;;5061681;28;20229;-88
2021/03/26 14:38:42;;;;;;;3.10;2.33;;;17.90;19.40;;;;;;5061664;28;20225;-88
2021/03/26 14:41:25;;;;;;;3.72;2.47;;;18.00;19.80;;;;;;5060932;28;20229;-88
2021/03/26 14:43:58;;;;;;;2.95;2.40;;;18.10;19.10;;;;;;5060639;28;20202;-88
2021/03/26 14:46:26;;;;;;;4.43;2.60;;;18.00;19.00;;;;;;5058125;28;20238;-89
2021/03/26 14:48:55;;;;;;;5.68;2.80;;;18.00;18.70;;;;;;5059601;28;20202;-88
2021/03/26 14:51:38;;;;;;;4.75;2.70;;;17.80;19.10;;;;;;5058774;28;20226;-89
2021/03/26 14:54:10;;;;;;;3.92;2.50;;;17.70;19.90;;;;;;5057087;28;20187;-89
2021/03/26 14:56:42;;;;;;;3.25;2.50;;;17.70;19.70;;;;;;5058678;28;20225;-88
2021/03/26 14:59:15;;;;;;;5.40;2.92;;;17.70;20.80;;;;;;5068567;28;20196;-89
2021/03/26 15:01:44;;;;;;;2.67;2.20;;;17.50;20.50;;;;;;5061092;28;20210;-89
2021/03/26 15:04:17;;;;;;;4.43;3.08;;;17.60;20.80;;;;;;5075953;28;20197;-91
2021/03/26 15:06:50;;;;;;;6.32;2.47;;;17.60;20.80;;;;;;5076977;28;20201;-88
2021/03/26 15:09:47;;;;;;;6.55;3.10;;;17.60;21.80;;;;;;5067162;28;20201;-91
2021/03/26 15:15:43;;;;;;;6.55;3.08;;;17.60;22.00;;;;;;5064402;28;20302;-89
2021/03/26 15:18:31;;;;;;;6.35;2.92;;;17.50;22.00;;;;;;5065873;28;20649;-87
2021/03/26 15:21:06;;;;;;;5.50;3.20;;;17.60;23.40;;;;;;5064067;28;20226;-92
2021/03/26 15:23:41;;;;;;;7.90;2.78;;;17.40;21.60;;;;;;5068727;28;20251;-91
2021/03/26 15:26:13;;;;;;;4.30;2.92;;;17.40;22.80;;;;;;5058275;28;20725;-90
2021/03/26 15:28:49;;;;;;;4.53;2.65;;;17.40;23.10;;;;;;5077010;28;20250;-86
2021/03/26 15:35:02;;;;;;;5.10;2.80;;;17.50;21.70;;;;;;5056918;28;20162;-89
2021/03/26 15:38:00;;;;;;;3.75;2.50;;;17.40;22.50;;;;;;5057901;28;20208;-89
2021/03/26 15:40:33;;;;;;;3.42;2.75;;;17.30;23.40;;;;;;5058677;28;20190;-90
2021/03/26 15:43:19;;;;;;;10.55;2.85;;;17.30;22.90;;;;;;5057605;28;20208;-90
2021/03/26 15:45:51;;;;;;;4.90;3.28;;;17.20;23.10;;;;;;5058904;28;20563;-90
2021/03/26 15:48:45;;;;;;;5.10;2.78;;;17.20;22.90;;;;;;5081035;28;20185;-89
2021/03/26 15:51:21;;;;;;;4.53;3.08;;;17.10;22.50;;;;;;5080522;28;20231;-90
2021/03/26 15:54:22;;;;;;;3.35;2.72;;;17.00;22.60;;;;;;5078255;28;20196;-91
2021/03/26 15:56:50;;;;;;;6.65;2.90;;;16.90;23.60;;;;;;5077584;28;20216;-90
2021/03/26 16:09:41;;;;;;;5.65;2.70;;;16.90;22.50;;;;;;5078525;28;20527;-88
2021/03/26 16:19:32;;;;;;;4.82;2.80;;;16.80;23.00;;;;;;5076758;28;20193;-89
2021/03/26 17:29:03;;;;;;;16.17;12.35;;;14.30;27.20;;;;;;4975768;29;20203;-94
2021/03/26 18:13:28;;;;;;;6.18;3.65;;;12.80;32.60;;;;;;4975461;28;20223;-87
2021/03/26 18:16:01;;;;;;;10.98;4.15;;;12.70;32.90;;;;;;4996226;28;20239;-87
2021/03/26 18:18:46;;;;;;;9.43;4.32;;;12.60;33.20;;;;;;5010622;28;20249;-86
2021/03/26 18:31:26;;;;;;;13.82;4.60;;;12.40;36.00;;;;;;5082811;28;20224;-85
2021/03/26 18:34:32;;;;;;;13.63;5.03;;;12.30;35.70;;;;;;5084519;28;20235;-85